KCCY/CCY METAR and TAF weather

Enter ICAO airport designator
Station Type Date Time Source
KCCY METAR 2021/10/20 07:35 UTC NOAA

KCCY 200735Z AUTO 17008KT 10SM FEW130 FEW160 13/09 A2997 RMK AO2


Station Type Date Time Source
KCCY Decoded METAR 2021/10/20 07:35 UTC NOAA

Charles City, IA, United States (KCCY) 43-04N 092-37W
Oct 20, 2021 - 03:35 AM EDT / 2021.10.20 0735 UTC
Wind: from the S (170 degrees) at 9 MPH (8 KT):0
Visibility: 10 mile(s):0
Sky conditions: mostly clear
Temperature: 55 F (13 C)
Dew Point: 48 F (9 C)
Relative Humidity: 76%
Pressure (altimeter): 29.97 in. Hg (1014 hPa)
ob: KCCY 200735Z AUTO 17008KT 10SM FEW130 FEW160 13/09 A2997 RMK AO2
cycle: 7

Station Type Date Time Source
KCCY TAF UTC NOAA

Error!

Example: see airport list